sensor_id;sensor_type;location;lat;lon;timestamp;temperature;humidity
21214;DHT22;10764;50.850;2.904;2022-12-19T00:01:33;13.80;43.60
21214;DHT22;10764;50.850;2.904;2022-12-19T00:04:03;13.80;43.70
21214;DHT22;10764;50.850;2.904;2022-12-19T00:06:35;13.90;44.50
21214;DHT22;10764;50.850;2.904;2022-12-19T00:09:02;13.70;44.40
21214;DHT22;10764;50.850;2.904;2022-12-19T00:11:30;13.80;43.90
21214;DHT22;10764;50.850;2.904;2022-12-19T00:13:57;13.80;43.90
21214;DHT22;10764;50.850;2.904;2022-12-19T00:16:26;13.80;43.90
21214;DHT22;10764;50.850;2.904;2022-12-19T00:18:56;13.80;44.00
21214;DHT22;10764;50.850;2.904;2022-12-19T00:21:26;13.80;44.00
21214;DHT22;10764;50.850;2.904;2022-12-19T00:23:53;13.90;44.10
21214;DHT22;10764;50.850;2.904;2022-12-19T00:26:29;13.90;44.20
21214;DHT22;10764;50.850;2.904;2022-12-19T00:28:58;13.80;44.20
21214;DHT22;10764;50.850;2.904;2022-12-19T00:31:29;13.70;44.80
21214;DHT22;10764;50.850;2.904;2022-12-19T00:33:56;13.80;44.30
21214;DHT22;10764;50.850;2.904;2022-12-19T00:36:26;13.90;44.30
21214;DHT22;10764;50.850;2.904;2022-12-19T00:38:54;13.80;44.30
21214;DHT22;10764;50.850;2.904;2022-12-19T00:41:27;17.20;46.70
21214;DHT22;10764;50.850;2.904;2022-12-19T00:43:58;13.80;44.50
21214;DHT22;10764;50.850;2.904;2022-12-19T00:46:26;13.80;44.40
21214;DHT22;10764;50.850;2.904;2022-12-19T00:51:27;13.90;44.60
21214;DHT22;10764;50.850;2.904;2022-12-19T00:53:55;13.90;44.70
21214;DHT22;10764;50.850;2.904;2022-12-19T01:04:03;13.90;45.40
21214;DHT22;10764;50.850;2.904;2022-12-19T01:46:43;14.00;46.40
21214;DHT22;10764;50.850;2.904;2022-12-19T01:51:46;13.90;46.50
21214;DHT22;10764;50.850;2.904;2022-12-19T01:54:20;13.90;46.50
21214;DHT22;10764;50.850;2.904;2022-12-19T01:56:51;14.00;46.70
21214;DHT22;10764;50.850;2.904;2022-12-19T01:59:23;13.90;46.60
21214;DHT22;10764;50.850;2.904;2022-12-19T02:04:24;14.00;46.70
21214;DHT22;10764;50.850;2.904;2022-12-19T02:06:56;14.00;46.80
21214;DHT22;10764;50.850;2.904;2022-12-19T02:17:18;14.00;47.00
21214;DHT22;10764;50.850;2.904;2022-12-19T02:27:51;14.00;47.20
21214;DHT22;10764;50.850;2.904;2022-12-19T02:38:29;14.00;47.50
21214;DHT22;10764;50.850;2.904;2022-12-19T03:11:38;14.10;48.10
21214;DHT22;10764;50.850;2.904;2022-12-19T03:14:10;14.00;48.10
21214;DHT22;10764;50.850;2.904;2022-12-19T03:34:19;14.10;48.40
21214;DHT22;10764;50.850;2.904;2022-12-19T03:44:33;14.10;48.50
21214;DHT22;10764;50.850;2.904;2022-12-19T03:47:20;14.10;48.60
21214;DHT22;10764;50.850;2.904;2022-12-19T03:55:18;14.00;48.70
21214;DHT22;10764;50.850;2.904;2022-12-19T03:57:52;14.10;48.80
21214;DHT22;10764;50.850;2.904;2022-12-19T04:02:49;14.10;48.80
21214;DHT22;10764;50.850;2.904;2022-12-19T04:10:17;14.10;48.90
21214;DHT22;10764;50.850;2.904;2022-12-19T04:13:08;14.10;48.90
21214;DHT22;10764;50.850;2.904;2022-12-19T04:18:12;14.10;49.00
21214;DHT22;10764;50.850;2.904;2022-12-19T04:20:44;14.10;49.00
21214;DHT22;10764;50.850;2.904;2022-12-19T04:25:47;14.10;49.10
21214;DHT22;10764;50.850;2.904;2022-12-19T04:28:24;14.20;49.20
21214;DHT22;10764;50.850;2.904;2022-12-19T04:30:53;14.10;49.10
21214;DHT22;10764;50.850;2.904;2022-12-19T05:44:38;14.20;50.10
21214;DHT22;10764;50.850;2.904;2022-12-19T06:31:23;14.20;50.90
21214;DHT22;10764;50.850;2.904;2022-12-19T06:36:21;14.20;50.80
21214;DHT22;10764;50.850;2.904;2022-12-19T06:44:05;14.20;52.70
21214;DHT22;10764;50.850;2.904;2022-12-19T06:51:28;14.30;54.10
21214;DHT22;10764;50.850;2.904;2022-12-19T07:03:45;14.30;55.30
21214;DHT22;10764;50.850;2.904;2022-12-19T07:08:39;14.30;54.90
21214;DHT22;10764;50.850;2.904;2022-12-19T07:16:03;14.30;54.80
21214;DHT22;10764;50.850;2.904;2022-12-19T07:18:34;14.30;54.80
21214;DHT22;10764;50.850;2.904;2022-12-19T07:38:15;14.30;54.20
21214;DHT22;10764;50.850;2.904;2022-12-19T07:40:42;14.30;54.20
21214;DHT22;10764;50.850;2.904;2022-12-19T07:43:09;14.30;54.10
21214;DHT22;10764;50.850;2.904;2022-12-19T07:45:36;14.30;54.00
21214;DHT22;10764;50.850;2.904;2022-12-19T07:48:05;14.20;53.80
21214;DHT22;10764;50.850;2.904;2022-12-19T07:50:32;14.30;53.80
21214;DHT22;10764;50.850;2.904;2022-12-19T07:52:59;14.30;53.70
21214;DHT22;10764;50.850;2.904;2022-12-19T07:55:26;14.30;53.60
21214;DHT22;10764;50.850;2.904;2022-12-19T07:57:53;14.30;53.60
21214;DHT22;10764;50.850;2.904;2022-12-19T08:00:21;14.30;53.50
21214;DHT22;10764;50.850;2.904;2022-12-19T08:02:48;14.30;53.40
21214;DHT22;10764;50.850;2.904;2022-12-19T08:05:15;14.30;53.40
21214;DHT22;10764;50.850;2.904;2022-12-19T08:07:42;14.30;53.30
21214;DHT22;10764;50.850;2.904;2022-12-19T08:10:09;14.30;53.30
21214;DHT22;10764;50.850;2.904;2022-12-19T08:12:38;17.60;55.50
21214;DHT22;10764;50.850;2.904;2022-12-19T08:15:05;14.30;53.20
21214;DHT22;10764;50.850;2.904;2022-12-19T08:17:34;14.30;53.10
21214;DHT22;10764;50.850;2.904;2022-12-19T08:20:01;14.30;53.00
21214;DHT22;10764;50.850;2.904;2022-12-19T08:22:29;14.30;53.10
21214;DHT22;10764;50.850;2.904;2022-12-19T08:24:56;14.30;53.00
21214;DHT22;10764;50.850;2.904;2022-12-19T08:27:23;14.30;52.90
21214;DHT22;10764;50.850;2.904;2022-12-19T08:29:50;14.30;52.90
21214;DHT22;10764;50.850;2.904;2022-12-19T08:32:18;14.30;52.80
21214;DHT22;10764;50.850;2.904;2022-12-19T08:34:48;14.10;53.30
21214;DHT22;10764;50.850;2.904;2022-12-19T08:37:15;14.30;52.80
21214;DHT22;10764;50.850;2.904;2022-12-19T08:39:43;14.30;52.80
21214;DHT22;10764;50.850;2.904;2022-12-19T08:42:10;14.30;52.80
21214;DHT22;10764;50.850;2.904;2022-12-19T08:44:36;14.30;52.70
21214;DHT22;10764;50.850;2.904;2022-12-19T08:47:03;14.30;52.70
21214;DHT22;10764;50.850;2.904;2022-12-19T08:49:30;14.30;52.70
21214;DHT22;10764;50.850;2.904;2022-12-19T08:51:57;14.30;52.70
21214;DHT22;10764;50.850;2.904;2022-12-19T08:54:24;14.30;52.70
21214;DHT22;10764;50.850;2.904;2022-12-19T08:56:52;14.30;52.70
21214;DHT22;10764;50.850;2.904;2022-12-19T08:59:19;14.30;52.70
21214;DHT22;10764;50.850;2.904;2022-12-19T09:02:00;14.30;52.70
21214;DHT22;10764;50.850;2.904;2022-12-19T09:04:28;14.30;52.70
21214;DHT22;10764;50.850;2.904;2022-12-19T09:07:15;14.30;52.70
21214;DHT22;10764;50.850;2.904;2022-12-19T09:09:43;14.30;52.70
21214;DHT22;10764;50.850;2.904;2022-12-19T09:12:12;14.30;52.70
21214;DHT22;10764;50.850;2.904;2022-12-19T09:14:39;14.30;52.70
21214;DHT22;10764;50.850;2.904;2022-12-19T09:17:06;14.30;52.70
21214;DHT22;10764;50.850;2.904;2022-12-19T09:19:33;15.80;54.20
21214;DHT22;10764;50.850;2.904;2022-12-19T09:22:00;14.30;52.70
21214;DHT22;10764;50.850;2.904;2022-12-19T09:24:27;14.30;52.80
21214;DHT22;10764;50.850;2.904;2022-12-19T09:26:53;14.30;52.70
21214;DHT22;10764;50.850;2.904;2022-12-19T09:29:20;14.30;52.80
21214;DHT22;10764;50.850;2.904;2022-12-19T09:31:49;14.30;52.80
21214;DHT22;10764;50.850;2.904;2022-12-19T09:34:24;14.30;52.80
21214;DHT22;10764;50.850;2.904;2022-12-19T09:37:06;14.30;52.80
21214;DHT22;10764;50.850;2.904;2022-12-19T09:39:34;14.30;52.80
21214;DHT22;10764;50.850;2.904;2022-12-19T09:47:58;14.30;52.90
21214;DHT22;10764;50.850;2.904;2022-12-19T09:50:48;14.30;52.90
21214;DHT22;10764;50.850;2.904;2022-12-19T09:53:57;14.30;54.20
21214;DHT22;10764;50.850;2.904;2022-12-19T09:56:28;14.30;53.00
21214;DHT22;10764;50.850;2.904;2022-12-19T09:59:11;14.10;53.50
21214;DHT22;10764;50.850;2.904;2022-12-19T10:04:37;14.30;53.60
21214;DHT22;10764;50.850;2.904;2022-12-19T10:07:11;14.20;53.60
21214;DHT22;10764;50.850;2.904;2022-12-19T10:09:57;14.30;53.10
21214;DHT22;10764;50.850;2.904;2022-12-19T10:15:53;14.30;54.40
21214;DHT22;10764;50.850;2.904;2022-12-19T10:24:44;14.30;53.10
21214;DHT22;10764;50.850;2.904;2022-12-19T10:27:40;14.40;53.80
21214;DHT22;10764;50.850;2.904;2022-12-19T10:30:27;14.40;53.30
21214;DHT22;10764;50.850;2.904;2022-12-19T10:35:37;14.30;53.20
21214;DHT22;10764;50.850;2.904;2022-12-19T10:46:43;14.40;53.90
21214;DHT22;10764;50.850;2.904;2022-12-19T10:49:16;14.20;53.20
21214;DHT22;10764;50.850;2.904;2022-12-19T10:51:58;14.40;53.40
21214;DHT22;10764;50.850;2.904;2022-12-19T11:02:45;14.40;54.10
21214;DHT22;10764;50.850;2.904;2022-12-19T11:05:28;14.70;54.20
21214;DHT22;10764;50.850;2.904;2022-12-19T11:10:45;13.90;54.00
21214;DHT22;10764;50.850;2.904;2022-12-19T11:13:43;14.30;54.10
21214;DHT22;10764;50.850;2.904;2022-12-19T11:16:37;16.50;55.20
21214;DHT22;10764;50.850;2.904;2022-12-19T11:22:24;16.50;55.40
21214;DHT22;10764;50.850;2.904;2022-12-19T11:25:17;15.80;54.90
21214;DHT22;10764;50.850;2.904;2022-12-19T11:31:24;14.40;54.30
21214;DHT22;10764;50.850;2.904;2022-12-19T11:34:18;16.70;55.40
21214;DHT22;10764;50.850;2.904;2022-12-19T11:36:59;13.90;54.10
21214;DHT22;10764;50.850;2.904;2022-12-19T11:39:40;14.40;54.30
21214;DHT22;10764;50.850;2.904;2022-12-19T11:42:20;14.40;54.30
21214;DHT22;10764;50.850;2.904;2022-12-19T11:48:10;14.40;53.70
21214;DHT22;10764;50.850;2.904;2022-12-19T11:50:54;14.40;54.40
21214;DHT22;10764;50.850;2.904;2022-12-19T11:56:16;14.40;54.40
21214;DHT22;10764;50.850;2.904;2022-12-19T11:58:59;14.40;53.80
21214;DHT22;10764;50.850;2.904;2022-12-19T12:01:44;14.40;54.40
21214;DHT22;10764;50.850;2.904;2022-12-19T12:07:10;14.40;54.40
21214;DHT22;10764;50.850;2.904;2022-12-19T12:10:18;16.80;55.70
21214;DHT22;10764;50.850;2.904;2022-12-19T12:13:23;14.40;54.40
21214;DHT22;10764;50.850;2.904;2022-12-19T12:16:15;16.00;55.10
21214;DHT22;10764;50.850;2.904;2022-12-19T12:25:47;14.40;53.90
21214;DHT22;10764;50.850;2.904;2022-12-19T12:38:03;14.40;54.50
21214;DHT22;10764;50.850;2.904;2022-12-19T12:41:17;14.40;53.90
21214;DHT22;10764;50.850;2.904;2022-12-19T12:44:05;14.40;54.50
21214;DHT22;10764;50.850;2.904;2022-12-19T12:46:43;14.40;53.90
21214;DHT22;10764;50.850;2.904;2022-12-19T12:49:37;14.20;54.50
21214;DHT22;10764;50.850;2.904;2022-12-19T12:52:08;14.40;54.50
21214;DHT22;10764;50.850;2.904;2022-12-19T12:54:40;14.30;54.50
21214;DHT22;10764;50.850;2.904;2022-12-19T13:02:43;14.40;54.00
21214;DHT22;10764;50.850;2.904;2022-12-19T13:07:55;14.40;54.00
21214;DHT22;10764;50.850;2.904;2022-12-19T13:10:30;18.00;56.50
21214;DHT22;10764;50.850;2.904;2022-12-19T13:13:08;14.40;54.00
21214;DHT22;10764;50.850;2.904;2022-12-19T13:15:44;16.70;55.70
21214;DHT22;10764;50.850;2.904;2022-12-19T13:18:40;14.80;54.20
21214;DHT22;10764;50.850;2.904;2022-12-19T13:27:31;14.40;54.70
21214;DHT22;10764;50.850;2.904;2022-12-19T13:32:31;14.40;54.10
21214;DHT22;10764;50.850;2.904;2022-12-19T13:35:01;14.40;54.10
21214;DHT22;10764;50.850;2.904;2022-12-19T13:38:01;15.40;55.20
21214;DHT22;10764;50.850;2.904;2022-12-19T13:41:01;14.50;54.80
21214;DHT22;10764;50.850;2.904;2022-12-19T13:43:48;14.40;54.70
21214;DHT22;10764;50.850;2.904;2022-12-19T13:49:28;14.50;54.80
21214;DHT22;10764;50.850;2.904;2022-12-19T13:52:01;14.40;54.80
21214;DHT22;10764;50.850;2.904;2022-12-19T13:54:32;14.40;54.20
21214;DHT22;10764;50.850;2.904;2022-12-19T13:57:00;14.40;54.80
21214;DHT22;10764;50.850;2.904;2022-12-19T13:59:37;14.40;54.20
21214;DHT22;10764;50.850;2.904;2022-12-19T14:02:16;14.40;54.20
21214;DHT22;10764;50.850;2.904;2022-12-19T14:04:47;14.40;54.30
21214;DHT22;10764;50.850;2.904;2022-12-19T14:07:39;14.40;54.30
21214;DHT22;10764;50.850;2.904;2022-12-19T14:10:14;14.50;54.90
21214;DHT22;10764;50.850;2.904;2022-12-19T14:13:04;17.10;56.20
21214;DHT22;10764;50.850;2.904;2022-12-19T14:16:14;15.90;55.60
21214;DHT22;10764;50.850;2.904;2022-12-19T14:18:47;14.40;54.30
21214;DHT22;10764;50.850;2.904;2022-12-19T14:21:18;14.30;54.80
21214;DHT22;10764;50.850;2.904;2022-12-19T14:26:44;14.50;55.00
21214;DHT22;10764;50.850;2.904;2022-12-19T14:29:48;14.50;54.30
21214;DHT22;10764;50.850;2.904;2022-12-19T14:32:39;14.50;54.30
21214;DHT22;10764;50.850;2.904;2022-12-19T14:35:32;14.30;54.80
21214;DHT22;10764;50.850;2.904;2022-12-19T14:38:23;14.50;54.20
21214;DHT22;10764;50.850;2.904;2022-12-19T14:44:17;14.50;54.80
21214;DHT22;10764;50.850;2.904;2022-12-19T14:47:32;16.90;56.00
21214;DHT22;10764;50.850;2.904;2022-12-19T14:50:34;14.50;54.80
21214;DHT22;10764;50.850;2.904;2022-12-19T14:53:22;14.50;54.20
21214;DHT22;10764;50.850;2.904;2022-12-19T14:56:12;14.50;54.30
21214;DHT22;10764;50.850;2.904;2022-12-19T14:58:59;14.60;54.30
21214;DHT22;10764;50.850;2.904;2022-12-19T15:01:29;14.30;54.90
21214;DHT22;10764;50.850;2.904;2022-12-19T15:06:44;14.50;54.30
21214;DHT22;10764;50.850;2.904;2022-12-19T15:09:36;14.50;54.40
21214;DHT22;10764;50.850;2.904;2022-12-19T15:15:58;14.50;54.40
21214;DHT22;10764;50.850;2.904;2022-12-19T15:21:00;14.50;54.40
21214;DHT22;10764;50.850;2.904;2022-12-19T15:23:28;14.50;54.40
21214;DHT22;10764;50.850;2.904;2022-12-19T15:25:59;14.50;54.40
21214;DHT22;10764;50.850;2.904;2022-12-19T15:31:30;14.50;54.50
21214;DHT22;10764;50.850;2.904;2022-12-19T15:33:53;14.30;55.00
21214;DHT22;10764;50.850;2.904;2022-12-19T15:36:40;14.50;54.50
21214;DHT22;10764;50.850;2.904;2022-12-19T15:39:07;14.50;54.60
21214;DHT22;10764;50.850;2.904;2022-12-19T15:41:34;14.40;54.50
21214;DHT22;10764;50.850;2.904;2022-12-19T15:44:08;14.50;54.60
21214;DHT22;10764;50.850;2.904;2022-12-19T15:46:35;14.60;54.60
21214;DHT22;10764;50.850;2.904;2022-12-19T15:49:14;14.50;54.50
21214;DHT22;10764;50.850;2.904;2022-12-19T15:51:41;14.40;55.10
21214;DHT22;10764;50.850;2.904;2022-12-19T15:54:08;14.50;54.50
21214;DHT22;10764;50.850;2.904;2022-12-19T15:56:55;14.50;54.60
21214;DHT22;10764;50.850;2.904;2022-12-19T15:59:28;14.50;54.60
21214;DHT22;10764;50.850;2.904;2022-12-19T16:02:15;14.50;55.90
21214;DHT22;10764;50.850;2.904;2022-12-19T16:04:44;14.50;55.80
21214;DHT22;10764;50.850;2.904;2022-12-19T16:07:22;14.50;54.60
21214;DHT22;10764;50.850;2.904;2022-12-19T16:09:49;17.10;56.50
21214;DHT22;10764;50.850;2.904;2022-12-19T16:12:19;14.50;54.70
21214;DHT22;10764;50.850;2.904;2022-12-19T16:14:52;17.50;56.70
21214;DHT22;10764;50.850;2.904;2022-12-19T16:17:22;16.50;56.20
21214;DHT22;10764;50.850;2.904;2022-12-19T16:19:50;14.50;54.70
21214;DHT22;10764;50.850;2.904;2022-12-19T16:22:20;14.50;54.70
21214;DHT22;10764;50.850;2.904;2022-12-19T16:24:48;14.30;55.20
21214;DHT22;10764;50.850;2.904;2022-12-19T16:27:27;14.50;54.70
21214;DHT22;10764;50.850;2.904;2022-12-19T16:29:55;14.50;54.70
21214;DHT22;10764;50.850;2.904;2022-12-19T16:34:51;14.50;54.70
21214;DHT22;10764;50.850;2.904;2022-12-19T16:37:21;14.30;54.60
21214;DHT22;10764;50.850;2.904;2022-12-19T16:39:54;14.50;54.70
21214;DHT22;10764;50.850;2.904;2022-12-19T16:42:21;14.50;54.70
21214;DHT22;10764;50.850;2.904;2022-12-19T16:44:47;14.50;54.70
21214;DHT22;10764;50.850;2.904;2022-12-19T16:47:16;14.50;54.70
21214;DHT22;10764;50.850;2.904;2022-12-19T16:49:43;14.30;55.30
21214;DHT22;10764;50.850;2.904;2022-12-19T16:54:38;14.50;54.70
21214;DHT22;10764;50.850;2.904;2022-12-19T16:57:12;14.50;54.80
21214;DHT22;10764;50.850;2.904;2022-12-19T16:59:41;14.50;54.70
21214;DHT22;10764;50.850;2.904;2022-12-19T17:02:40;14.50;54.80
21214;DHT22;10764;50.850;2.904;2022-12-19T17:05:23;14.50;55.40
21214;DHT22;10764;50.850;2.904;2022-12-19T17:07:52;14.50;54.80
21214;DHT22;10764;50.850;2.904;2022-12-19T17:10:20;14.40;55.40
21214;DHT22;10764;50.850;2.904;2022-12-19T17:12:52;14.30;55.30
21214;DHT22;10764;50.850;2.904;2022-12-19T17:15:25;15.80;56.00
21214;DHT22;10764;50.850;2.904;2022-12-19T17:17:55;14.50;54.80
21214;DHT22;10764;50.850;2.904;2022-12-19T17:20:26;14.50;54.80
21214;DHT22;10764;50.850;2.904;2022-12-19T17:22:54;17.70;57.00
21214;DHT22;10764;50.850;2.904;2022-12-19T17:25:23;14.50;54.90
21214;DHT22;10764;50.850;2.904;2022-12-19T17:27:52;14.40;55.40
21214;DHT22;10764;50.850;2.904;2022-12-19T17:30:19;14.50;54.80
21214;DHT22;10764;50.850;2.904;2022-12-19T17:32:48;14.60;54.80
21214;DHT22;10764;50.850;2.904;2022-12-19T17:35:18;14.50;54.80
21214;DHT22;10764;50.850;2.904;2022-12-19T17:37:54;14.40;55.40
21214;DHT22;10764;50.850;2.904;2022-12-19T17:40:24;16.30;56.30
21214;DHT22;10764;50.850;2.904;2022-12-19T17:42:52;14.30;55.30
21214;DHT22;10764;50.850;2.904;2022-12-19T17:45:19;14.50;54.80
21214;DHT22;10764;50.850;2.904;2022-12-19T17:47:48;14.50;54.80
21214;DHT22;10764;50.850;2.904;2022-12-19T17:50:28;14.50;54.90
21214;DHT22;10764;50.850;2.904;2022-12-19T17:52:55;14.50;54.90
21214;DHT22;10764;50.850;2.904;2022-12-19T17:55:27;14.40;55.60
21214;DHT22;10764;50.850;2.904;2022-12-19T17:57:55;17.90;57.10
21214;DHT22;10764;50.850;2.904;2022-12-19T18:00:25;15.50;56.00
21214;DHT22;10764;50.850;2.904;2022-12-19T18:03:01;14.50;55.50
21214;DHT22;10764;50.850;2.904;2022-12-19T18:05:34;14.40;55.50
21214;DHT22;10764;50.850;2.904;2022-12-19T18:08:02;16.70;56.80
21214;DHT22;10764;50.850;2.904;2022-12-19T18:10:30;14.50;55.00
21214;DHT22;10764;50.850;2.904;2022-12-19T18:12:57;14.50;55.00
21214;DHT22;10764;50.850;2.904;2022-12-19T18:15:24;14.50;55.00
21214;DHT22;10764;50.850;2.904;2022-12-19T18:17:51;14.50;55.00
21214;DHT22;10764;50.850;2.904;2022-12-19T18:22:58;14.50;55.00
21214;DHT22;10764;50.850;2.904;2022-12-19T18:25:30;14.50;55.60
21214;DHT22;10764;50.850;2.904;2022-12-19T18:27:57;16.40;56.50
21214;DHT22;10764;50.850;2.904;2022-12-19T18:30:24;14.60;55.00
21214;DHT22;10764;50.850;2.904;2022-12-19T18:32:59;14.50;55.00
21214;DHT22;10764;50.850;2.904;2022-12-19T18:35:36;14.50;55.60
21214;DHT22;10764;50.850;2.904;2022-12-19T18:38:06;14.50;55.00
21214;DHT22;10764;50.850;2.904;2022-12-19T18:40:33;18.30;57.40
21214;DHT22;10764;50.850;2.904;2022-12-19T18:43:00;14.50;55.00
21214;DHT22;10764;50.850;2.904;2022-12-19T18:45:35;14.50;55.00
21214;DHT22;10764;50.850;2.904;2022-12-19T18:48:06;14.40;55.50
21214;DHT22;10764;50.850;2.904;2022-12-19T18:50:33;14.50;55.00
21214;DHT22;10764;50.850;2.904;2022-12-19T18:53:00;17.60;57.20
21214;DHT22;10764;50.850;2.904;2022-12-19T18:55:28;18.10;57.40
21214;DHT22;10764;50.850;2.904;2022-12-19T18:57:55;16.00;56.50
21214;DHT22;10764;50.850;2.904;2022-12-19T19:00:24;14.50;55.00
21214;DHT22;10764;50.850;2.904;2022-12-19T19:02:54;17.60;57.10
21214;DHT22;10764;50.850;2.904;2022-12-19T19:05:25;17.70;57.20
21214;DHT22;10764;50.850;2.904;2022-12-19T19:07:52;14.50;55.00
21214;DHT22;10764;50.850;2.904;2022-12-19T19:10:25;14.50;55.00
21214;DHT22;10764;50.850;2.904;2022-12-19T19:13:01;14.40;55.60
21214;DHT22;10764;50.850;2.904;2022-12-19T19:15:44;14.50;55.00
21214;DHT22;10764;50.850;2.904;2022-12-19T19:18:12;14.60;55.10
21214;DHT22;10764;50.850;2.904;2022-12-19T19:20:40;14.30;55.50
21214;DHT22;10764;50.850;2.904;2022-12-19T19:23:11;14.50;55.00
21214;DHT22;10764;50.850;2.904;2022-12-19T19:25:38;18.50;57.60
21214;DHT22;10764;50.850;2.904;2022-12-19T19:28:05;14.50;55.00
21214;DHT22;10764;50.850;2.904;2022-12-19T19:30:35;14.50;55.00
21214;DHT22;10764;50.850;2.904;2022-12-19T19:33:13;14.50;55.00
21214;DHT22;10764;50.850;2.904;2022-12-19T19:35:44;14.60;55.60
21214;DHT22;10764;50.850;2.904;2022-12-19T19:38:12;14.40;55.60
21214;DHT22;10764;50.850;2.904;2022-12-19T19:40:39;14.50;55.00
21214;DHT22;10764;50.850;2.904;2022-12-19T19:43:06;14.50;55.00
21214;DHT22;10764;50.850;2.904;2022-12-19T19:45:34;14.60;55.10
21214;DHT22;10764;50.850;2.904;2022-12-19T19:48:08;14.50;55.80
21214;DHT22;10764;50.850;2.904;2022-12-19T19:50:35;14.40;55.70
21214;DHT22;10764;50.850;2.904;2022-12-19T19:53:02;14.50;55.80
21214;DHT22;10764;50.850;2.904;2022-12-19T19:55:29;14.50;55.00
21214;DHT22;10764;50.850;2.904;2022-12-19T19:57:55;14.50;55.00
21214;DHT22;10764;50.850;2.904;2022-12-19T20:00:22;18.00;57.60
21214;DHT22;10764;50.850;2.904;2022-12-19T20:02:49;14.50;55.00
21214;DHT22;10764;50.850;2.904;2022-12-19T20:05:16;15.60;55.50
21214;DHT22;10764;50.850;2.904;2022-12-19T20:07:43;14.60;55.70
21214;DHT22;10764;50.850;2.904;2022-12-19T20:10:11;17.10;57.10
21214;DHT22;10764;50.850;2.904;2022-12-19T20:12:38;14.60;55.90
21214;DHT22;10764;50.850;2.904;2022-12-19T20:15:05;14.50;55.00
21214;DHT22;10764;50.850;2.904;2022-12-19T20:17:32;14.60;55.90
21214;DHT22;10764;50.850;2.904;2022-12-19T20:19:59;14.60;55.10
21214;DHT22;10764;50.850;2.904;2022-12-19T20:22:28;14.50;55.90
21214;DHT22;10764;50.850;2.904;2022-12-19T20:24:55;14.40;55.60
21214;DHT22;10764;50.850;2.904;2022-12-19T20:27:22;14.50;55.10
21214;DHT22;10764;50.850;2.904;2022-12-19T20:29:49;14.40;55.80
21214;DHT22;10764;50.850;2.904;2022-12-19T20:32:16;14.50;55.00
21214;DHT22;10764;50.850;2.904;2022-12-19T20:34:43;14.50;55.00
21214;DHT22;10764;50.850;2.904;2022-12-19T20:37:09;14.50;55.00
21214;DHT22;10764;50.850;2.904;2022-12-19T20:39:36;14.50;55.00
21214;DHT22;10764;50.850;2.904;2022-12-19T20:42:03;16.50;56.00
21214;DHT22;10764;50.850;2.904;2022-12-19T20:44:31;15.40;56.20
21214;DHT22;10764;50.850;2.904;2022-12-19T20:46:58;14.50;55.00
21214;DHT22;10764;50.850;2.904;2022-12-19T20:49:26;17.80;56.70
21214;DHT22;10764;50.850;2.904;2022-12-19T20:51:52;14.50;55.00
21214;DHT22;10764;50.850;2.904;2022-12-19T20:54:19;14.70;55.20
21214;DHT22;10764;50.850;2.904;2022-12-19T20:56:46;14.40;55.80
21214;DHT22;10764;50.850;2.904;2022-12-19T20:59:13;14.50;55.00
21214;DHT22;10764;50.850;2.904;2022-12-19T21:01:40;14.60;55.10
21214;DHT22;10764;50.850;2.904;2022-12-19T21:04:07;14.50;55.00
21214;DHT22;10764;50.850;2.904;2022-12-19T21:06:34;14.50;55.00
21214;DHT22;10764;50.850;2.904;2022-12-19T21:09:03;14.50;55.10
21214;DHT22;10764;50.850;2.904;2022-12-19T21:11:31;14.30;55.60
21214;DHT22;10764;50.850;2.904;2022-12-19T21:14:01;14.50;55.20
21214;DHT22;10764;50.850;2.904;2022-12-19T21:16:28;14.60;55.10
21214;DHT22;10764;50.850;2.904;2022-12-19T21:18:55;14.50;55.10
21214;DHT22;10764;50.850;2.904;2022-12-19T21:21:24;14.50;55.00
21214;DHT22;10764;50.850;2.904;2022-12-19T21:23:52;17.30;57.00
21214;DHT22;10764;50.850;2.904;2022-12-19T21:26:21;17.00;56.90
21214;DHT22;10764;50.850;2.904;2022-12-19T21:28:47;14.50;55.10
21214;DHT22;10764;50.850;2.904;2022-12-19T21:31:20;14.40;55.90
21214;DHT22;10764;50.850;2.904;2022-12-19T21:33:48;14.60;55.70
21214;DHT22;10764;50.850;2.904;2022-12-19T21:36:18;14.60;55.10
21214;DHT22;10764;50.850;2.904;2022-12-19T21:38:47;18.00;58.10
21214;DHT22;10764;50.850;2.904;2022-12-19T21:41:14;14.50;55.70
21214;DHT22;10764;50.850;2.904;2022-12-19T21:43:50;14.60;55.10
21214;DHT22;10764;50.850;2.904;2022-12-19T21:46:21;14.60;55.20
21214;DHT22;10764;50.850;2.904;2022-12-19T21:48:50;17.30;57.10
21214;DHT22;10764;50.850;2.904;2022-12-19T21:51:19;14.40;55.70
21214;DHT22;10764;50.850;2.904;2022-12-19T21:53:46;14.40;55.70
21214;DHT22;10764;50.850;2.904;2022-12-19T21:56:29;14.50;55.10
21214;DHT22;10764;50.850;2.904;2022-12-19T21:58:59;14.60;55.80
21214;DHT22;10764;50.850;2.904;2022-12-19T22:01:28;14.40;55.70
21214;DHT22;10764;50.850;2.904;2022-12-19T22:04:00;14.60;55.20
21214;DHT22;10764;50.850;2.904;2022-12-19T22:06:30;17.80;57.30
21214;DHT22;10764;50.850;2.904;2022-12-19T22:08:58;16.80;56.80
21214;DHT22;10764;50.850;2.904;2022-12-19T22:11:26;17.90;57.40
21214;DHT22;10764;50.850;2.904;2022-12-19T22:13:54;14.50;55.20
21214;DHT22;10764;50.850;2.904;2022-12-19T22:16:23;14.60;55.20
21214;DHT22;10764;50.850;2.904;2022-12-19T22:18:50;14.50;55.10
21214;DHT22;10764;50.850;2.904;2022-12-19T22:21:19;18.10;57.60
21214;DHT22;10764;50.850;2.904;2022-12-19T22:23:45;14.60;55.20
21214;DHT22;10764;50.850;2.904;2022-12-19T22:26:16;14.50;55.20
21214;DHT22;10764;50.850;2.904;2022-12-19T22:28:45;14.60;55.20
21214;DHT22;10764;50.850;2.904;2022-12-19T22:31:25;14.60;55.20
21214;DHT22;10764;50.850;2.904;2022-12-19T22:33:55;14.40;55.70
21214;DHT22;10764;50.850;2.904;2022-12-19T22:36:23;14.40;55.80
21214;DHT22;10764;50.850;2.904;2022-12-19T22:38:55;14.50;55.20
21214;DHT22;10764;50.850;2.904;2022-12-19T22:41:22;14.40;55.80
21214;DHT22;10764;50.850;2.904;2022-12-19T22:43:49;18.10;57.60
21214;DHT22;10764;50.850;2.904;2022-12-19T22:46:28;14.50;55.20
21214;DHT22;10764;50.850;2.904;2022-12-19T22:48:57;14.40;55.80
21214;DHT22;10764;50.850;2.904;2022-12-19T22:51:26;14.60;55.30
21214;DHT22;10764;50.850;2.904;2022-12-19T22:53:53;14.30;55.80
21214;DHT22;10764;50.850;2.904;2022-12-19T22:56:22;14.60;55.30
21214;DHT22;10764;50.850;2.904;2022-12-19T22:58:51;14.60;55.30
21214;DHT22;10764;50.850;2.904;2022-12-19T23:01:22;14.40;55.90
21214;DHT22;10764;50.850;2.904;2022-12-19T23:03:52;14.50;55.90
21214;DHT22;10764;50.850;2.904;2022-12-19T23:06:20;15.00;56.20
21214;DHT22;10764;50.850;2.904;2022-12-19T23:08:48;18.00;57.70
21214;DHT22;10764;50.850;2.904;2022-12-19T23:11:18;14.40;55.90
21214;DHT22;10764;50.850;2.904;2022-12-19T23:13:46;14.60;55.50
21214;DHT22;10764;50.850;2.904;2022-12-19T23:16:14;14.40;56.00
21214;DHT22;10764;50.850;2.904;2022-12-19T23:18:41;14.60;55.50